createdAt,value
2022-10-06T00:01:22.097Z,94.10
2022-10-06T00:03:52.982Z,93.90
2022-10-06T00:06:24.059Z,94.10
2022-10-06T00:11:39.907Z,93.90
2022-10-06T00:14:32.365Z,93.80
2022-10-06T00:17:03.588Z,93.50
2022-10-06T00:19:38.165Z,93.70
2022-10-06T00:22:08.987Z,93.70
2022-10-06T00:24:39.795Z,92.90
2022-10-06T00:27:11.567Z,93.80
2022-10-06T00:29:43.672Z,92.80
2022-10-06T00:32:14.609Z,93.90
2022-10-06T00:34:46.450Z,94.10
2022-10-06T00:37:17.279Z,93.70
2022-10-06T00:39:48.292Z,93.60
2022-10-06T00:42:25.455Z,93.50
2022-10-06T00:44:57.210Z,94.10
2022-10-06T00:47:32.238Z,94.00
2022-10-06T00:50:04.023Z,93.80
2022-10-06T00:52:38.386Z,93.80
2022-10-06T00:55:12.419Z,93.70
2022-10-06T00:57:44.168Z,93.40
2022-10-06T01:00:15.566Z,92.80
2022-10-06T01:03:00.142Z,94.10
2022-10-06T01:05:36.296Z,92.70
2022-10-06T01:08:07.552Z,93.10
2022-10-06T01:10:38.565Z,93.30
2022-10-06T01:13:12.835Z,94.10
2022-10-06T01:15:54.873Z,93.60
2022-10-06T01:18:29.363Z,94.00
2022-10-06T01:21:27.133Z,92.80
2022-10-06T01:23:58.554Z,93.60
2022-10-06T01:26:30.885Z,93.70
2022-10-06T01:29:02.356Z,93.60
2022-10-06T01:31:33.946Z,93.40
2022-10-06T01:34:24.863Z,93.40
2022-10-06T01:36:56.210Z,93.00
2022-10-06T01:39:28.856Z,93.20
2022-10-06T01:42:19.543Z,93.10
2022-10-06T01:44:50.626Z,92.90
2022-10-06T01:47:21.748Z,93.50
2022-10-06T01:49:52.917Z,93.60
2022-10-06T01:52:24.603Z,93.50
2022-10-06T01:54:56.418Z,93.50
2022-10-06T01:57:28.321Z,93.40
2022-10-06T02:00:00.307Z,93.30
2022-10-06T02:02:33.318Z,93.10
2022-10-06T02:05:04.220Z,93.20
2022-10-06T02:07:37.392Z,93.20
2022-10-06T02:10:09.479Z,93.10
2022-10-06T02:13:02.999Z,93.10
2022-10-06T02:15:34.766Z,92.30
2022-10-06T02:18:07.046Z,93.30
2022-10-06T02:20:38.108Z,93.30
2022-10-06T02:23:28.931Z,93.30
2022-10-06T02:26:08.820Z,93.20
2022-10-06T02:28:39.774Z,93.20
2022-10-06T02:31:14.173Z,93.10
2022-10-06T02:33:46.112Z,93.10
2022-10-06T02:36:18.896Z,93.10
2022-10-06T02:38:50.133Z,92.60
2022-10-06T02:41:21.829Z,92.20
2022-10-06T02:43:54.990Z,92.40
2022-10-06T02:46:26.060Z,92.50
2022-10-06T02:49:16.864Z,93.50
2022-10-06T02:51:48.852Z,92.60
2022-10-06T02:55:02.076Z,92.50
2022-10-06T02:57:33.476Z,92.80
2022-10-06T03:00:08.723Z,93.00
2022-10-06T03:02:39.731Z,93.20
2022-10-06T03:05:11.023Z,92.30
2022-10-06T03:07:42.059Z,92.70
2022-10-06T03:10:13.783Z,93.40
2022-10-06T03:13:05.677Z,93.10
2022-10-06T03:15:36.626Z,93.00
2022-10-06T03:18:08.375Z,93.20
2022-10-06T03:20:39.568Z,92.70
2022-10-06T03:23:13.565Z,92.80
2022-10-06T03:25:45.345Z,92.60
2022-10-06T03:28:37.328Z,92.60
2022-10-06T03:31:09.533Z,92.70
2022-10-06T03:33:40.624Z,92.50
2022-10-06T03:36:16.738Z,93.00
2022-10-06T03:38:48.086Z,92.60
2022-10-06T03:41:22.558Z,92.60
2022-10-06T03:43:56.012Z,92.70
2022-10-06T03:46:30.307Z,92.70
2022-10-06T03:49:02.645Z,92.80
2022-10-06T03:51:39.796Z,93.00
2022-10-06T03:54:16.510Z,93.00
2022-10-06T03:56:50.380Z,93.00
2022-10-06T03:59:21.453Z,92.70
2022-10-06T04:01:54.880Z,92.50
2022-10-06T04:04:33.063Z,92.60
2022-10-06T04:07:08.380Z,92.50
2022-10-06T04:09:39.566Z,92.60
2022-10-06T04:12:38.200Z,92.50
2022-10-06T04:15:09.803Z,92.60
2022-10-06T04:17:41.054Z,92.60
2022-10-06T04:20:12.062Z,92.70
2022-10-06T04:22:43.141Z,92.90
2022-10-06T04:25:14.513Z,93.00
2022-10-06T04:27:46.698Z,93.00
2022-10-06T04:30:18.655Z,93.10
2022-10-06T04:32:50.138Z,93.10
2022-10-06T04:35:21.889Z,93.20
2022-10-06T04:38:00.532Z,93.20
2022-10-06T04:40:31.607Z,93.20
2022-10-06T04:43:04.109Z,93.30
2022-10-06T04:45:38.765Z,93.30
2022-10-06T04:48:10.286Z,93.30
2022-10-06T04:50:41.651Z,93.30
2022-10-06T04:53:36.246Z,93.40
2022-10-06T04:56:08.637Z,93.40
2022-10-06T04:58:41.813Z,93.40
2022-10-06T05:01:23.733Z,93.40
2022-10-06T05:03:58.210Z,93.30
2022-10-06T05:06:33.953Z,93.40
2022-10-06T05:09:11.880Z,93.40
2022-10-06T05:11:49.576Z,93.40
2022-10-06T05:14:25.320Z,93.40
2022-10-06T05:16:56.405Z,93.40
2022-10-06T05:19:47.083Z,93.50
2022-10-06T05:22:18.212Z,93.60
2022-10-06T05:24:52.550Z,93.40
2022-10-06T05:27:29.128Z,93.40
2022-10-06T05:30:00.380Z,93.50
2022-10-06T05:32:35.954Z,93.50
2022-10-06T05:35:09.432Z,93.50
2022-10-06T05:37:41.063Z,93.50
2022-10-06T05:40:13.933Z,93.50
2022-10-06T05:42:45.578Z,93.50
2022-10-06T05:46:00.328Z,93.60
2022-10-06T05:48:32.631Z,93.50
2022-10-06T05:51:07.507Z,93.60
2022-10-06T05:53:40.585Z,93.50
2022-10-06T05:56:12.974Z,93.60
2022-10-06T05:58:46.719Z,93.50
2022-10-06T06:01:28.885Z,93.60
2022-10-06T06:04:05.415Z,93.60
2022-10-06T06:06:40.858Z,93.60
2022-10-06T06:09:18.164Z,93.60
2022-10-06T06:11:54.569Z,93.60
2022-10-06T06:14:51.759Z,93.60
2022-10-06T06:17:27.293Z,93.60
2022-10-06T06:20:02.313Z,93.60
2022-10-06T06:22:33.671Z,93.60
2022-10-06T06:25:05.367Z,93.60
2022-10-06T06:27:37.242Z,93.60
2022-10-06T06:30:09.763Z,93.60
2022-10-06T06:32:41.493Z,93.60
2022-10-06T06:35:13.182Z,93.60
2022-10-06T06:37:44.470Z,93.60
2022-10-06T06:40:16.215Z,93.60
2022-10-06T06:42:52.914Z,93.60
2022-10-06T06:46:07.023Z,93.60
2022-10-06T06:49:10.225Z,93.60
2022-10-06T06:51:51.411Z,93.60
2022-10-06T06:54:24.357Z,93.60
2022-10-06T06:57:00.437Z,93.60
2022-10-06T06:59:34.618Z,93.70
2022-10-06T07:02:06.099Z,93.60
2022-10-06T07:04:41.322Z,93.60
2022-10-06T07:07:14.486Z,93.60
2022-10-06T07:09:53.875Z,93.60
2022-10-06T07:12:27.036Z,93.60
2022-10-06T07:15:20.615Z,93.60
2022-10-06T07:18:22.410Z,93.60
2022-10-06T07:21:52.175Z,93.60
2022-10-06T07:24:42.580Z,93.60
2022-10-06T07:27:15.078Z,93.60
2022-10-06T07:29:48.223Z,93.60
2022-10-06T07:32:22.810Z,93.60
2022-10-06T07:35:14.154Z,93.60
2022-10-06T07:37:45.612Z,93.20
2022-10-06T07:40:17.587Z,93.20
2022-10-06T07:42:54.815Z,93.20
2022-10-06T07:45:50.900Z,93.20
2022-10-06T07:48:33.481Z,93.30
2022-10-06T07:51:13.864Z,93.30
2022-10-06T07:53:52.278Z,93.30
2022-10-06T07:56:31.548Z,93.10
2022-10-06T07:59:03.446Z,93.30
2022-10-06T08:01:34.774Z,93.40
2022-10-06T08:04:08.340Z,93.20
2022-10-06T08:06:40.136Z,93.30
2022-10-06T08:09:11.334Z,93.40
2022-10-06T08:11:42.795Z,93.50
2022-10-06T08:14:16.561Z,93.40
2022-10-06T08:16:47.793Z,93.20
2022-10-06T08:19:21.002Z,93.40
2022-10-06T08:21:52.734Z,93.40
2022-10-06T08:24:23.941Z,93.20
2022-10-06T08:26:55.190Z,93.30
2022-10-06T08:29:26.449Z,93.30
2022-10-06T08:34:50.589Z,93.10
2022-10-06T08:37:28.715Z,93.20
2022-10-06T08:40:20.782Z,93.20
2022-10-06T08:43:31.790Z,93.20
2022-10-06T08:46:04.390Z,93.00
2022-10-06T08:48:40.207Z,93.00
2022-10-06T08:51:29.344Z,93.20
2022-10-06T08:54:34.464Z,93.10
2022-10-06T08:57:33.047Z,93.20
2022-10-06T09:00:05.410Z,93.30
2022-10-06T09:02:44.430Z,93.10
2022-10-06T09:05:20.940Z,93.00
2022-10-06T09:08:00.612Z,93.30
2022-10-06T09:10:46.646Z,93.30
2022-10-06T09:13:45.339Z,93.20
2022-10-06T09:16:29.593Z,93.30
2022-10-06T09:19:33.490Z,93.20
2022-10-06T09:22:06.430Z,93.20
2022-10-06T09:24:47.205Z,93.30
2022-10-06T09:27:25.929Z,93.20
2022-10-06T09:29:57.113Z,93.20
2022-10-06T09:32:30.582Z,93.20
2022-10-06T09:35:02.521Z,93.20
2022-10-06T09:38:13.115Z,93.20
2022-10-06T09:40:54.851Z,93.50
2022-10-06T09:43:32.722Z,93.20
2022-10-06T09:46:32.726Z,93.20
2022-10-06T09:49:28.071Z,93.20
2022-10-06T09:55:21.279Z,92.10
2022-10-06T09:57:59.652Z,92.10
2022-10-06T10:00:32.151Z,92.10
2022-10-06T10:03:09.011Z,91.10
2022-10-06T10:05:53.089Z,90.50
2022-10-06T10:11:32.691Z,91.40
2022-10-06T10:14:03.168Z,91.50
2022-10-06T10:16:36.945Z,90.80
2022-10-06T10:19:11.949Z,91.40
2022-10-06T10:21:47.396Z,92.10
2022-10-06T10:24:48.893Z,91.90
2022-10-06T10:27:28.649Z,92.30
2022-10-06T10:30:12.289Z,92.40
2022-10-06T10:32:49.408Z,91.90
2022-10-06T10:35:39.999Z,92.30
2022-10-06T10:38:32.703Z,91.90
2022-10-06T10:41:26.424Z,91.70
2022-10-06T10:44:36.748Z,92.40
2022-10-06T10:47:10.285Z,91.80
2022-10-06T10:49:41.430Z,92.70
2022-10-06T10:52:21.674Z,92.00
2022-10-06T10:54:58.677Z,92.80
2022-10-06T10:57:42.159Z,91.80
2022-10-06T11:00:38.115Z,91.80
2022-10-06T11:03:12.325Z,92.80
2022-10-06T11:06:02.355Z,91.90
2022-10-06T11:09:07.502Z,91.90
2022-10-06T11:11:52.418Z,91.70
2022-10-06T11:14:35.635Z,91.70
2022-10-06T11:17:18.952Z,92.80
2022-10-06T11:20:15.635Z,92.70
2022-10-06T11:23:03.038Z,92.30
2022-10-06T11:26:17.104Z,91.90
2022-10-06T11:28:53.356Z,91.70
2022-10-06T11:31:30.698Z,92.70
2022-10-06T11:34:04.746Z,91.60
2022-10-06T11:36:37.650Z,92.30
2022-10-06T11:39:26.682Z,92.80
2022-10-06T11:42:34.145Z,92.70
2022-10-06T11:45:16.978Z,93.00
2022-10-06T11:48:05.971Z,92.80
2022-10-06T11:50:44.446Z,91.10
2022-10-06T11:53:37.632Z,92.90
2022-10-06T11:56:21.459Z,92.50
2022-10-06T11:58:58.636Z,92.30
2022-10-06T12:01:36.106Z,92.50
2022-10-06T12:04:27.877Z,92.50
2022-10-06T12:07:01.729Z,92.80
2022-10-06T12:09:44.610Z,92.60
2022-10-06T12:12:22.481Z,91.20
2022-10-06T12:18:31.149Z,91.30
2022-10-06T12:21:15.819Z,91.60
2022-10-06T12:24:22.047Z,93.10
2022-10-06T12:26:57.279Z,92.10
2022-10-06T12:29:35.235Z,92.90
2022-10-06T12:32:18.743Z,92.50
2022-10-06T12:35:11.370Z,92.40
2022-10-06T12:37:55.028Z,92.40
2022-10-06T12:40:50.443Z,91.00
2022-10-06T12:43:24.574Z,92.00
2022-10-06T12:46:17.760Z,91.90
2022-10-06T12:49:23.757Z,92.90
2022-10-06T12:52:20.716Z,93.00
2022-10-06T12:55:16.402Z,92.50
2022-10-06T12:57:50.779Z,92.90
2022-10-06T13:00:40.349Z,92.30
2022-10-06T13:03:25.834Z,92.40
2022-10-06T13:06:16.679Z,92.70
2022-10-06T13:09:03.433Z,91.70
2022-10-06T13:11:35.450Z,92.70
2022-10-06T13:14:24.930Z,91.80
2022-10-06T13:16:57.439Z,92.80
2022-10-06T13:19:31.437Z,92.10
2022-10-06T13:22:43.007Z,92.30
2022-10-06T13:25:17.910Z,92.20
2022-10-06T13:27:55.537Z,92.90
2022-10-06T13:30:28.349Z,92.70
2022-10-06T13:33:00.710Z,92.50
2022-10-06T13:35:32.112Z,92.20
2022-10-06T13:38:05.475Z,90.50
2022-10-06T13:40:57.677Z,91.70
2022-10-06T13:43:28.950Z,92.60
2022-10-06T13:46:01.946Z,91.70
2022-10-06T13:48:33.345Z,92.70
2022-10-06T13:51:05.011Z,92.70
2022-10-06T13:53:36.250Z,92.80
2022-10-06T13:56:07.675Z,91.70
2022-10-06T13:58:39.235Z,92.80
2022-10-06T14:01:10.598Z,92.60
2022-10-06T14:03:41.719Z,92.50
2022-10-06T14:06:24.702Z,92.60
2022-10-06T14:08:59.472Z,92.60
2022-10-06T14:11:32.965Z,92.90
2022-10-06T14:14:05.992Z,92.50
2022-10-06T14:16:37.539Z,92.80
2022-10-06T14:19:29.395Z,92.90
2022-10-06T14:22:01.525Z,92.70
2022-10-06T14:24:40.092Z,91.70
2022-10-06T14:27:12.579Z,90.60
2022-10-06T14:29:44.548Z,92.80
2022-10-06T14:32:40.595Z,91.10
2022-10-06T14:40:46.642Z,90.10
2022-10-06T14:43:18.617Z,92.40
2022-10-06T14:45:51.075Z,92.90
2022-10-06T14:48:23.321Z,92.30
2022-10-06T14:50:55.409Z,93.00
2022-10-06T14:53:27.902Z,91.70
2022-10-06T14:56:12.332Z,93.00
2022-10-06T14:58:45.788Z,92.90
2022-10-06T15:01:19.137Z,91.80
2022-10-06T15:03:58.209Z,93.00
2022-10-06T15:09:35.467Z,89.60
2022-10-06T15:12:07.665Z,93.20
2022-10-06T15:14:41.358Z,92.30
2022-10-06T15:17:13.990Z,91.90
2022-10-06T15:19:50.842Z,91.00
2022-10-06T15:22:22.695Z,91.00
2022-10-06T15:24:55.036Z,92.70
2022-10-06T15:27:45.915Z,93.00
2022-10-06T15:30:21.522Z,92.70
2022-10-06T15:32:53.712Z,91.70
2022-10-06T15:35:25.751Z,92.60
2022-10-06T15:37:57.510Z,92.80
2022-10-06T15:40:32.912Z,92.60
2022-10-06T15:43:05.149Z,92.80
2022-10-06T15:45:37.241Z,92.00
2022-10-06T15:48:12.190Z,90.70
2022-10-06T15:50:44.162Z,91.40
2022-10-06T15:53:17.348Z,92.50
2022-10-06T15:55:49.515Z,92.80
2022-10-06T15:58:23.963Z,91.20
2022-10-06T16:01:34.206Z,92.60
2022-10-06T16:04:13.491Z,92.30
2022-10-06T16:06:50.892Z,92.10
2022-10-06T16:09:22.514Z,91.30
2022-10-06T16:12:21.714Z,92.40
2022-10-06T16:14:53.841Z,92.80
2022-10-06T16:17:25.360Z,92.70
2022-10-06T16:19:56.764Z,92.50
2022-10-06T16:22:28.019Z,92.50
2022-10-06T16:24:59.277Z,92.70
2022-10-06T16:27:33.445Z,92.40
2022-10-06T16:30:05.174Z,92.30
2022-10-06T16:32:36.447Z,91.90
2022-10-06T16:35:08.384Z,92.50
2022-10-06T16:37:39.599Z,92.60
2022-10-06T16:40:11.178Z,92.60
2022-10-06T16:43:03.015Z,92.60
2022-10-06T16:45:34.196Z,92.30
2022-10-06T16:48:05.322Z,92.60
2022-10-06T16:50:36.618Z,91.20
2022-10-06T16:53:07.842Z,92.40
2022-10-06T16:55:39.939Z,92.60
2022-10-06T16:58:11.729Z,92.60
2022-10-06T17:00:43.076Z,92.50
2022-10-06T17:03:14.300Z,92.40
2022-10-06T17:05:45.289Z,92.50
2022-10-06T17:08:16.385Z,92.60
2022-10-06T17:11:38.996Z,92.50
2022-10-06T17:14:10.272Z,92.40
2022-10-06T17:16:43.983Z,92.40
2022-10-06T17:19:17.919Z,92.40
2022-10-06T17:21:52.786Z,92.40
2022-10-06T17:24:29.304Z,92.50
2022-10-06T17:27:01.207Z,92.50
2022-10-06T17:29:52.002Z,92.40
2022-10-06T17:32:23.451Z,92.60
2022-10-06T17:34:56.739Z,92.90
2022-10-06T17:37:27.655Z,92.20
2022-10-06T17:39:58.812Z,92.50
2022-10-06T17:42:29.780Z,92.60
2022-10-06T17:45:00.700Z,92.30
2022-10-06T17:47:32.615Z,92.50
2022-10-06T17:50:03.749Z,92.30
2022-10-06T17:52:36.923Z,92.70
2022-10-06T17:55:08.177Z,92.60
2022-10-06T17:57:39.027Z,92.60
2022-10-06T18:00:11.629Z,92.60
2022-10-06T18:02:42.884Z,92.30
2022-10-06T18:05:14.914Z,92.30
2022-10-06T18:07:46.082Z,92.30
2022-10-06T18:10:34.976Z,90.60
2022-10-06T18:13:05.882Z,92.60
2022-10-06T18:15:39.936Z,92.70
2022-10-06T18:18:11.035Z,92.70
2022-10-06T18:21:21.544Z,92.00
2022-10-06T18:23:53.162Z,92.30
2022-10-06T18:26:24.355Z,92.80
2022-10-06T18:28:55.443Z,92.50
2022-10-06T18:37:03.328Z,92.60
2022-10-06T18:39:34.768Z,92.80
2022-10-06T18:42:06.771Z,92.60
2022-10-06T18:44:55.692Z,90.30
2022-10-06T18:47:44.866Z,92.60
2022-10-06T18:50:16.040Z,92.40
2022-10-06T18:53:06.844Z,90.70
2022-10-06T18:55:37.868Z,91.00
2022-10-06T18:58:08.732Z,91.40
2022-10-06T19:00:40.668Z,92.80
2022-10-06T19:03:11.649Z,92.70
2022-10-06T19:05:52.397Z,91.40
2022-10-06T19:08:23.446Z,92.60
2022-10-06T19:11:12.365Z,90.90
2022-10-06T19:13:48.727Z,92.20
2022-10-06T19:16:20.476Z,92.70
2022-10-06T19:18:51.817Z,92.20
2022-10-06T19:21:23.081Z,92.10
2022-10-06T19:23:53.907Z,92.10
2022-10-06T19:26:25.004Z,92.50
2022-10-06T19:28:56.228Z,87.80
2022-10-06T19:31:28.306Z,89.00
2022-10-06T19:34:04.144Z,92.30
2022-10-06T19:36:35.354Z,92.20
2022-10-06T19:39:13.985Z,91.10
2022-10-06T19:42:03.606Z,89.80
2022-10-06T19:44:36.454Z,91.90
2022-10-06T19:47:12.520Z,89.60
2022-10-06T19:49:43.877Z,91.30
2022-10-06T19:52:15.827Z,90.60
2022-10-06T19:54:47.549Z,91.80
2022-10-06T19:57:18.350Z,92.30
2022-10-06T19:59:49.386Z,91.70
2022-10-06T20:02:20.475Z,91.10
2022-10-06T20:04:51.859Z,91.10
2022-10-06T20:07:26.616Z,92.10
2022-10-06T20:09:57.858Z,91.90
2022-10-06T20:12:49.015Z,92.20
2022-10-06T20:15:21.178Z,92.00
2022-10-06T20:17:52.225Z,90.90
2022-10-06T20:20:23.082Z,92.20
2022-10-06T20:22:55.225Z,91.50
2022-10-06T20:25:27.664Z,92.20
2022-10-06T20:27:59.845Z,92.20
2022-10-06T20:30:31.272Z,91.20
2022-10-06T20:33:02.974Z,91.60
2022-10-06T20:35:36.876Z,92.40
2022-10-06T20:38:10.197Z,92.20
2022-10-06T20:40:50.468Z,92.00
2022-10-06T20:46:09.611Z,91.00
2022-10-06T20:48:41.131Z,92.10
2022-10-06T20:51:13.684Z,91.60
2022-10-06T20:53:44.748Z,91.10
2022-10-06T20:56:16.030Z,91.90
2022-10-06T20:58:47.208Z,90.90
2022-10-06T21:01:19.503Z,90.60
2022-10-06T21:03:56.052Z,91.60
2022-10-06T21:06:46.749Z,92.10
2022-10-06T21:09:20.126Z,91.30
2022-10-06T21:11:51.370Z,92.10
2022-10-06T21:14:43.530Z,91.10
2022-10-06T21:17:14.425Z,91.20
2022-10-06T21:19:45.212Z,92.30
2022-10-06T21:22:17.009Z,91.90
2022-10-06T21:24:48.763Z,92.00
2022-10-06T21:27:39.239Z,91.90
2022-10-06T21:30:11.647Z,91.90
2022-10-06T21:32:43.712Z,91.60
2022-10-06T21:35:14.769Z,91.70
2022-10-06T21:37:45.950Z,91.80
2022-10-06T21:40:18.099Z,91.60
2022-10-06T21:42:49.007Z,91.60
2022-10-06T21:45:24.161Z,91.90
2022-10-06T21:47:55.390Z,91.60
2022-10-06T21:50:27.607Z,91.30
2022-10-06T21:52:58.620Z,91.80
2022-10-06T21:55:29.449Z,91.30
2022-10-06T21:58:00.459Z,91.70
2022-10-06T22:00:31.550Z,91.70
2022-10-06T22:03:02.675Z,91.90
2022-10-06T22:05:54.505Z,91.70
2022-10-06T22:08:25.564Z,91.90
2022-10-06T22:10:56.612Z,91.60
2022-10-06T22:13:54.572Z,91.40
2022-10-06T22:16:27.783Z,91.80
2022-10-06T22:18:59.203Z,91.90
2022-10-06T22:21:32.827Z,91.70
2022-10-06T22:24:06.742Z,91.90
2022-10-06T22:26:39.644Z,91.50
2022-10-06T22:29:12.709Z,91.50
2022-10-06T22:31:45.897Z,90.30
2022-10-06T22:34:20.165Z,90.90
2022-10-06T22:36:51.273Z,91.90
2022-10-06T22:39:23.635Z,90.80
2022-10-06T22:41:54.989Z,91.90
2022-10-06T22:44:25.987Z,91.60
2022-10-06T22:46:57.061Z,91.50
2022-10-06T22:49:28.261Z,91.10
2022-10-06T22:51:59.361Z,91.60
2022-10-06T22:54:31.269Z,92.10
2022-10-06T22:57:02.593Z,91.90
2022-10-06T22:59:33.744Z,91.90
2022-10-06T23:02:04.606Z,91.70
2022-10-06T23:04:35.653Z,91.30
2022-10-06T23:07:06.550Z,91.50
2022-10-06T23:09:38.207Z,91.30
2022-10-06T23:12:18.076Z,88.70
2022-10-06T23:14:49.992Z,91.70
2022-10-06T23:17:20.970Z,91.90
2022-10-06T23:19:52.098Z,91.10
2022-10-06T23:22:43.059Z,91.90
2022-10-06T23:25:14.569Z,91.80
2022-10-06T23:27:45.880Z,91.30
2022-10-06T23:30:17.295Z,91.60
2022-10-06T23:32:48.280Z,90.40
2022-10-06T23:35:19.477Z,91.00
2022-10-06T23:37:50.421Z,91.20
2022-10-06T23:40:21.431Z,91.90
2022-10-06T23:42:52.543Z,91.40
2022-10-06T23:45:23.608Z,91.30
2022-10-06T23:47:54.681Z,91.40
2022-10-06T23:50:25.644Z,91.40
2022-10-06T23:52:56.476Z,90.40
2022-10-06T23:55:27.269Z,91.70
2022-10-06T23:57:59.304Z,91.40
